sensor_id;sensor_type;location;lat;lon;timestamp;pressure;altitude;pressure_sealevel;temperature;humidity
71964;BME280;59834;52.124;5.422;2023-12-14T00:01:44;100990.44;;;5.34;100.00
71964;BME280;59834;52.124;5.422;2023-12-14T00:04:12;100993.03;;;5.34;100.00
71964;BME280;59834;52.124;5.422;2023-12-14T00:06:39;101001.81;;;5.30;100.00
71964;BME280;59834;52.124;5.422;2023-12-14T00:09:09;101019.22;;;5.28;100.00
71964;BME280;59834;52.124;5.422;2023-12-14T00:11:38;101015.78;;;5.27;100.00
71964;BME280;59834;52.124;5.422;2023-12-14T00:14:06;101023.56;;;5.27;100.00
71964;BME280;59834;52.124;5.422;2023-12-14T00:16:33;101028.88;;;5.24;100.00
71964;BME280;59834;52.124;5.422;2023-12-14T00:19:00;101036.66;;;5.24;100.00
71964;BME280;59834;52.124;5.422;2023-12-14T00:21:27;101035.72;;;5.27;100.00
71964;BME280;59834;52.124;5.422;2023-12-14T00:23:54;101044.44;;;5.24;100.00
71964;BME280;59834;52.124;5.422;2023-12-14T00:26:20;101047.81;;;5.26;100.00
71964;BME280;59834;52.124;5.422;2023-12-14T00:28:47;101053.91;;;5.25;100.00
71964;BME280;59834;52.124;5.422;2023-12-14T00:31:13;101059.94;;;5.26;100.00
71964;BME280;59834;52.124;5.422;2023-12-14T00:33:40;101067.72;;;5.26;100.00
71964;BME280;59834;52.124;5.422;2023-12-14T00:36:07;101065.13;;;5.26;100.00
71964;BME280;59834;52.124;5.422;2023-12-14T00:38:33;101064.41;;;5.22;100.00
71964;BME280;59834;52.124;5.422;2023-12-14T00:41:00;101067.72;;;5.26;100.00
71964;BME280;59834;52.124;5.422;2023-12-14T00:43:27;101067.84;;;5.23;100.00
71964;BME280;59834;52.124;5.422;2023-12-14T00:45:53;101075.59;;;5.24;100.00
71964;BME280;59834;52.124;5.422;2023-12-14T00:48:20;101072.19;;;5.22;100.00
71964;BME280;59834;52.124;5.422;2023-12-14T00:50:46;101069.59;;;5.22;100.00
71964;BME280;59834;52.124;5.422;2023-12-14T00:53:13;101074.84;;;5.20;100.00
71964;BME280;59834;52.124;5.422;2023-12-14T00:55:39;101081.72;;;5.22;100.00
71964;BME280;59834;52.124;5.422;2023-12-14T00:58:06;101078.34;;;5.19;100.00
71964;BME280;59834;52.124;5.422;2023-12-14T01:00:32;101088.84;;;5.16;100.00
71964;BME280;59834;52.124;5.422;2023-12-14T01:02:59;101088.84;;;5.16;100.00
71964;BME280;59834;52.124;5.422;2023-12-14T01:05:25;101097.53;;;5.15;100.00
71964;BME280;59834;52.124;5.422;2023-12-14T01:07:53;101099.34;;;5.13;100.00
71964;BME280;59834;52.124;5.422;2023-12-14T01:10:19;101111.41;;;5.14;100.00
71964;BME280;59834;52.124;5.422;2023-12-14T01:12:46;101113.06;;;5.17;100.00
71964;BME280;59834;52.124;5.422;2023-12-14T01:15:13;101119.09;;;5.17;100.00
71964;BME280;59834;52.124;5.422;2023-12-14T01:17:39;101126.91;;;5.16;100.00
71964;BME280;59834;52.124;5.422;2023-12-14T01:20:07;101134.81;;;5.13;100.00
71964;BME280;59834;52.124;5.422;2023-12-14T01:22:38;101133.97;;;5.12;100.00
71964;BME280;59834;52.124;5.422;2023-12-14T01:25:05;101142.53;;;5.14;100.00
71964;BME280;59834;52.124;5.422;2023-12-14T01:27:31;101142.53;;;5.14;100.00
71964;BME280;59834;52.124;5.422;2023-12-14T01:29:58;101140.88;;;5.13;100.00
71964;BME280;59834;52.124;5.422;2023-12-14T01:32:24;101142.47;;;5.16;100.00
71964;BME280;59834;52.124;5.422;2023-12-14T01:34:51;101156.34;;;5.15;100.00
71964;BME280;59834;52.124;5.422;2023-12-14T01:37:17;101151.34;;;5.10;100.00
71964;BME280;59834;52.124;5.422;2023-12-14T01:39:44;101151.34;;;5.10;100.00
71964;BME280;59834;52.124;5.422;2023-12-14T01:42:10;101149.63;;;5.09;100.00
71964;BME280;59834;52.124;5.422;2023-12-14T01:44:37;101156.56;;;5.09;100.00
71964;BME280;59834;52.124;5.422;2023-12-14T01:47:03;101157.47;;;5.08;100.00
71964;BME280;59834;52.124;5.422;2023-12-14T01:49:30;101168.69;;;5.08;100.00
71964;BME280;59834;52.124;5.422;2023-12-14T01:51:57;101178.16;;;5.09;100.00
71964;BME280;59834;52.124;5.422;2023-12-14T01:54:23;101182.47;;;5.10;100.00
71964;BME280;59834;52.124;5.422;2023-12-14T01:56:50;101191.16;;;5.09;100.00
71964;BME280;59834;52.124;5.422;2023-12-14T01:59:17;101194.66;;;5.08;100.00
71964;BME280;59834;52.124;5.422;2023-12-14T02:01:45;101203.34;;;5.07;100.00
71964;BME280;59834;52.124;5.422;2023-12-14T02:04:14;101202.50;;;5.07;100.00
71964;BME280;59834;52.124;5.422;2023-12-14T02:06:41;101205.03;;;5.08;100.00
71964;BME280;59834;52.124;5.422;2023-12-14T02:09:08;101208.44;;;5.10;100.00
71964;BME280;59834;52.124;5.422;2023-12-14T02:11:34;101209.31;;;5.09;100.00
71964;BME280;59834;52.124;5.422;2023-12-14T02:14:11;101213.75;;;5.06;100.00
71964;BME280;59834;52.124;5.422;2023-12-14T02:16:38;101221.53;;;5.06;100.00
71964;BME280;59834;52.124;5.422;2023-12-14T02:19:05;101227.72;;;5.03;100.00
71964;BME280;59834;52.124;5.422;2023-12-14T02:21:32;101235.50;;;5.03;100.00
71964;BME280;59834;52.124;5.422;2023-12-14T02:23:58;101246.72;;;5.04;100.00
71964;BME280;59834;52.124;5.422;2023-12-14T02:26:25;101249.31;;;5.04;100.00
71964;BME280;59834;52.124;5.422;2023-12-14T02:28:51;101247.66;;;5.01;100.00
71964;BME280;59834;52.124;5.422;2023-12-14T02:31:19;101264.81;;;5.05;100.00
71964;BME280;59834;52.124;5.422;2023-12-14T02:33:46;101265.72;;;5.04;100.00
71964;BME280;59834;52.124;5.422;2023-12-14T02:36:12;101275.25;;;5.04;100.00
71964;BME280;59834;52.124;5.422;2023-12-14T02:38:39;101278.69;;;5.04;100.00
71964;BME280;59834;52.124;5.422;2023-12-14T02:41:06;101276.09;;;5.04;100.00
71964;BME280;59834;52.124;5.422;2023-12-14T02:43:32;101276.13;;;5.03;100.00
71964;BME280;59834;52.124;5.422;2023-12-14T02:45:59;101281.38;;;5.01;100.00
71964;BME280;59834;52.124;5.422;2023-12-14T02:48:28;101293.53;;;4.99;100.00
71964;BME280;59834;52.124;5.422;2023-12-14T02:50:59;101287.50;;;4.99;100.00
71964;BME280;59834;52.124;5.422;2023-12-14T02:53:27;101291.78;;;5.00;100.00
71964;BME280;59834;52.124;5.422;2023-12-14T02:55:54;101296.94;;;5.01;100.00
71964;BME280;59834;52.124;5.422;2023-12-14T02:58:20;101296.03;;;5.02;100.00
71964;BME280;59834;52.124;5.422;2023-12-14T03:00:47;101302.13;;;5.01;100.00
71964;BME280;59834;52.124;5.422;2023-12-14T03:03:13;101293.53;;;4.99;100.00
71964;BME280;59834;52.124;5.422;2023-12-14T03:05:40;101308.22;;;5.00;100.00
71964;BME280;59834;52.124;5.422;2023-12-14T03:08:07;101310.00;;;4.98;100.00
71964;BME280;59834;52.124;5.422;2023-12-14T03:10:33;101308.22;;;5.00;100.00
71964;BME280;59834;52.124;5.422;2023-12-14T03:13:00;101309.09;;;4.99;100.00
71964;BME280;59834;52.124;5.422;2023-12-14T03:15:26;101316.00;;;5.00;100.00
71964;BME280;59834;52.124;5.422;2023-12-14T03:17:53;101311.69;;;4.99;100.00
71964;BME280;59834;52.124;5.422;2023-12-14T03:20:20;101317.78;;;4.98;100.00
71964;BME280;59834;52.124;5.422;2023-12-14T03:22:47;101321.31;;;4.97;100.00
71964;BME280;59834;52.124;5.422;2023-12-14T03:25:14;101316.13;;;4.97;100.00
71964;BME280;59834;52.124;5.422;2023-12-14T03:27:40;101329.97;;;4.96;100.00
71964;BME280;59834;52.124;5.422;2023-12-14T03:30:07;101317.88;;;4.96;100.00
71964;BME280;59834;52.124;5.422;2023-12-14T03:32:37;101326.50;;;4.97;100.00
71964;BME280;59834;52.124;5.422;2023-12-14T03:35:05;101326.50;;;4.97;100.00
71964;BME280;59834;52.124;5.422;2023-12-14T03:37:31;101317.88;;;4.96;100.00
71964;BME280;59834;52.124;5.422;2023-12-14T03:39:58;101314.47;;;4.94;100.00
71964;BME280;59834;52.124;5.422;2023-12-14T03:42:24;101316.22;;;4.94;100.00
71964;BME280;59834;52.124;5.422;2023-12-14T03:44:51;101319.72;;;4.93;100.00
71964;BME280;59834;52.124;5.422;2023-12-14T03:47:17;101321.50;;;4.91;100.00
71964;BME280;59834;52.124;5.422;2023-12-14T03:49:44;101319.81;;;4.90;100.00
71964;BME280;59834;52.124;5.422;2023-12-14T03:52:11;101318.06;;;4.90;100.00
71964;BME280;59834;52.124;5.422;2023-12-14T03:54:37;101322.41;;;4.90;100.00
71964;BME280;59834;52.124;5.422;2023-12-14T03:57:04;101323.25;;;4.90;100.00
71964;BME280;59834;52.124;5.422;2023-12-14T03:59:30;101326.69;;;4.91;100.00
71964;BME280;59834;52.124;5.422;2023-12-14T04:01:59;101325.00;;;4.90;100.00
71964;BME280;59834;52.124;5.422;2023-12-14T04:04:26;101335.38;;;4.90;100.00
71964;BME280;59834;52.124;5.422;2023-12-14T04:06:52;101338.84;;;4.89;100.00
71964;BME280;59834;52.124;5.422;2023-12-14T04:09:19;101338.84;;;4.89;100.00
71964;BME280;59834;52.124;5.422;2023-12-14T04:11:45;101350.06;;;4.89;100.00
71964;BME280;59834;52.124;5.422;2023-12-14T04:14:12;101349.31;;;4.86;100.00
71964;BME280;59834;52.124;5.422;2023-12-14T04:16:39;101361.41;;;4.87;100.00
71964;BME280;59834;52.124;5.422;2023-12-14T04:19:06;101376.16;;;4.85;100.00
71964;BME280;59834;52.124;5.422;2023-12-14T04:21:37;101371.03;;;4.83;100.00
71964;BME280;59834;52.124;5.422;2023-12-14T04:24:03;101387.44;;;4.84;100.00
71964;BME280;59834;52.124;5.422;2023-12-14T04:26:30;101382.34;;;4.81;100.00
71964;BME280;59834;52.124;5.422;2023-12-14T04:28:57;101381.50;;;4.80;100.00
71964;BME280;59834;52.124;5.422;2023-12-14T04:31:23;101386.72;;;4.79;100.00
71964;BME280;59834;52.124;5.422;2023-12-14T04:33:50;101385.94;;;4.77;100.00
71964;BME280;59834;52.124;5.422;2023-12-14T04:36:16;101395.44;;;4.76;100.00
71964;BME280;59834;52.124;5.422;2023-12-14T04:38:43;101392.03;;;4.74;100.00
71964;BME280;59834;52.124;5.422;2023-12-14T04:41:12;101407.59;;;4.74;100.00
71964;BME280;59834;52.124;5.422;2023-12-14T04:43:39;101411.97;;;4.72;100.00
71964;BME280;59834;52.124;5.422;2023-12-14T04:46:06;101417.16;;;4.72;100.00
71964;BME280;59834;52.124;5.422;2023-12-14T04:48:32;101418.88;;;4.73;100.00
71964;BME280;59834;52.124;5.422;2023-12-14T04:50:59;101433.53;;;4.74;100.00
71964;BME280;59834;52.124;5.422;2023-12-14T04:53:26;101432.72;;;4.72;100.00
71964;BME280;59834;52.124;5.422;2023-12-14T04:55:52;101444.84;;;4.71;100.00
71964;BME280;59834;52.124;5.422;2023-12-14T04:58:19;101444.84;;;4.71;100.00
71964;BME280;59834;52.124;5.422;2023-12-14T05:00:45;101453.44;;;4.73;100.00
71964;BME280;59834;52.124;5.422;2023-12-14T05:03:12;101455.22;;;4.71;100.00
71964;BME280;59834;52.124;5.422;2023-12-14T05:05:39;101460.41;;;4.71;100.00
71964;BME280;59834;52.124;5.422;2023-12-14T05:08:05;101461.34;;;4.69;100.00
71964;BME280;59834;52.124;5.422;2023-12-14T05:10:32;101466.53;;;4.69;100.00
71964;BME280;59834;52.124;5.422;2023-12-14T05:13:02;101481.22;;;4.70;100.00
71964;BME280;59834;52.124;5.422;2023-12-14T05:15:29;101478.66;;;4.68;100.00
71964;BME280;59834;52.124;5.422;2023-12-14T05:17:57;101489.91;;;4.67;100.00
71964;BME280;59834;52.124;5.422;2023-12-14T05:20:23;101491.69;;;4.65;100.00
71964;BME280;59834;52.124;5.422;2023-12-14T05:22:50;101498.63;;;4.65;100.00
71964;BME280;59834;52.124;5.422;2023-12-14T05:25:17;101504.66;;;4.65;100.00
71964;BME280;59834;52.124;5.422;2023-12-14T05:27:43;101519.34;;;4.66;100.00
71964;BME280;59834;52.124;5.422;2023-12-14T05:30:10;101521.03;;;4.67;100.00
71964;BME280;59834;52.124;5.422;2023-12-14T05:32:37;101521.88;;;4.68;100.00
71964;BME280;59834;52.124;5.422;2023-12-14T05:35:05;101528.81;;;4.67;100.00
71964;BME280;59834;52.124;5.422;2023-12-14T05:37:32;101527.03;;;4.69;100.00
71964;BME280;59834;52.124;5.422;2023-12-14T05:39:58;101530.50;;;4.68;100.00
71964;BME280;59834;52.124;5.422;2023-12-14T05:42:25;101533.09;;;4.68;100.00
71964;BME280;59834;52.124;5.422;2023-12-14T05:44:52;101536.59;;;4.67;100.00
71964;BME280;59834;52.124;5.422;2023-12-14T05:47:19;101534.09;;;4.64;100.00
71964;BME280;59834;52.124;5.422;2023-12-14T05:49:45;101540.16;;;4.63;100.00
71964;BME280;59834;52.124;5.422;2023-12-14T05:52:12;101540.16;;;4.63;100.00
71964;BME280;59834;52.124;5.422;2023-12-14T05:54:38;101547.06;;;4.64;100.00
71964;BME280;59834;52.124;5.422;2023-12-14T05:57:08;101550.53;;;4.63;100.00
71964;BME280;59834;52.124;5.422;2023-12-14T05:59:34;101551.47;;;4.61;100.00
71964;BME280;59834;52.124;5.422;2023-12-14T06:02:01;101559.28;;;4.59;100.00
71964;BME280;59834;52.124;5.422;2023-12-14T06:04:28;101562.78;;;4.58;100.00
71964;BME280;59834;52.124;5.422;2023-12-14T06:06:54;101568.03;;;4.55;100.00
71964;BME280;59834;52.124;5.422;2023-12-14T06:09:21;101579.31;;;4.54;100.00
71964;BME280;59834;52.124;5.422;2023-12-14T06:11:51;101585.47;;;4.50;100.00
71964;BME280;59834;52.124;5.422;2023-12-14T06:14:18;101583.75;;;4.49;100.00
71964;BME280;59834;52.124;5.422;2023-12-14T06:16:45;101582.91;;;4.48;100.00
71964;BME280;59834;52.124;5.422;2023-12-14T06:19:12;101587.22;;;4.48;100.00
71964;BME280;59834;52.124;5.422;2023-12-14T06:21:38;101586.53;;;4.43;100.00
71964;BME280;59834;52.124;5.422;2023-12-14T06:24:06;101595.22;;;4.40;100.00
71964;BME280;59834;52.124;5.422;2023-12-14T06:26:33;101603.91;;;4.39;100.00
71964;BME280;59834;52.124;5.422;2023-12-14T06:28:59;101604.75;;;4.40;100.00
71964;BME280;59834;52.124;5.422;2023-12-14T06:31:26;101609.09;;;4.39;100.00
71964;BME280;59834;52.124;5.422;2023-12-14T06:33:52;101616.88;;;4.38;100.00
71964;BME280;59834;52.124;5.422;2023-12-14T06:36:22;101623.81;;;4.36;100.00
71964;BME280;59834;52.124;5.422;2023-12-14T06:38:53;101633.44;;;4.32;100.00
71964;BME280;59834;52.124;5.422;2023-12-14T06:41:22;101638.59;;;4.32;100.00
71964;BME280;59834;52.124;5.422;2023-12-14T06:43:50;101651.63;;;4.31;100.00
71964;BME280;59834;52.124;5.422;2023-12-14T06:46:17;101640.41;;;4.29;100.00
71964;BME280;59834;52.124;5.422;2023-12-14T06:48:43;101649.09;;;4.28;100.00
71964;BME280;59834;52.124;5.422;2023-12-14T06:51:11;101657.72;;;4.28;100.00
71964;BME280;59834;52.124;5.422;2023-12-14T06:53:41;101656.03;;;4.27;100.00
71964;BME280;59834;52.124;5.422;2023-12-14T06:56:09;101661.28;;;4.24;100.00
71964;BME280;59834;52.124;5.422;2023-12-14T06:58:39;101667.38;;;4.23;100.00
71964;BME280;59834;52.124;5.422;2023-12-14T07:01:06;101669.91;;;4.24;100.00
71964;BME280;59834;52.124;5.422;2023-12-14T07:03:33;101676.06;;;4.20;100.00
71964;BME280;59834;52.124;5.422;2023-12-14T07:06:00;101688.16;;;4.20;100.00
71964;BME280;59834;52.124;5.422;2023-12-14T07:08:27;101693.38;;;4.18;100.00
71964;BME280;59834;52.124;5.422;2023-12-14T07:10:53;101702.88;;;4.18;100.00
71964;BME280;59834;52.124;5.422;2023-12-14T07:13:20;101703.78;;;4.17;100.00
71964;BME280;59834;52.124;5.422;2023-12-14T07:15:47;101698.59;;;4.15;100.00
71964;BME280;59834;52.124;5.422;2023-12-14T07:18:14;101717.66;;;4.14;100.00
71964;BME280;59834;52.124;5.422;2023-12-14T07:20:41;101716.78;;;4.14;100.00
71964;BME280;59834;52.124;5.422;2023-12-14T07:23:07;101715.09;;;4.13;100.00
71964;BME280;59834;52.124;5.422;2023-12-14T07:25:34;101732.38;;;4.12;100.00
71964;BME280;59834;52.124;5.422;2023-12-14T07:28:01;101717.81;;;4.07;100.00
71964;BME280;59834;52.124;5.422;2023-12-14T07:30:29;101728.25;;;4.04;100.00
71964;BME280;59834;52.124;5.422;2023-12-14T07:32:56;101731.69;;;4.04;100.00
71964;BME280;59834;52.124;5.422;2023-12-14T07:35:22;101737.72;;;4.05;100.00
71964;BME280;59834;52.124;5.422;2023-12-14T07:37:49;101745.53;;;4.03;100.00
71964;BME280;59834;52.124;5.422;2023-12-14T07:40:16;101740.31;;;4.05;100.00
71964;BME280;59834;52.124;5.422;2023-12-14T07:42:43;101742.06;;;4.04;100.00
71964;BME280;59834;52.124;5.422;2023-12-14T07:45:10;101746.34;;;4.05;100.00
71964;BME280;59834;52.124;5.422;2023-12-14T07:47:37;101751.56;;;4.04;100.00
71964;BME280;59834;52.124;5.422;2023-12-14T07:50:04;101764.53;;;4.02;100.00
71964;BME280;59834;52.124;5.422;2023-12-14T07:52:31;101761.94;;;4.02;100.00
71964;BME280;59834;52.124;5.422;2023-12-14T07:54:58;101763.63;;;4.05;100.00
71964;BME280;59834;52.124;5.422;2023-12-14T07:57:24;101764.47;;;4.05;100.00
71964;BME280;59834;52.124;5.422;2023-12-14T07:59:51;101771.41;;;4.05;100.00
71964;BME280;59834;52.124;5.422;2023-12-14T08:02:18;101767.06;;;4.05;100.00
71964;BME280;59834;52.124;5.422;2023-12-14T08:04:44;101772.16;;;4.10;100.00
71964;BME280;59834;52.124;5.422;2023-12-14T08:07:11;101776.50;;;4.09;100.00
71964;BME280;59834;52.124;5.422;2023-12-14T08:09:38;101770.41;;;4.10;100.00
71964;BME280;59834;52.124;5.422;2023-12-14T08:12:05;101774.72;;;4.11;100.00
71964;BME280;59834;52.124;5.422;2023-12-14T08:14:35;101779.00;;;4.12;100.00
71964;BME280;59834;52.124;5.422;2023-12-14T08:17:02;101783.25;;;4.16;100.00
71964;BME280;59834;52.124;5.422;2023-12-14T08:19:29;101786.72;;;4.15;100.00
71964;BME280;59834;52.124;5.422;2023-12-14T08:21:57;101785.00;;;4.16;100.00
71964;BME280;59834;52.124;5.422;2023-12-14T08:24:24;101793.63;;;4.16;100.00
71964;BME280;59834;52.124;5.422;2023-12-14T08:26:50;101805.63;;;4.20;100.00
71964;BME280;59834;52.124;5.422;2023-12-14T08:29:17;101818.50;;;4.23;100.00
71964;BME280;59834;52.124;5.422;2023-12-14T08:31:44;101814.28;;;4.19;100.00
71964;BME280;59834;52.124;5.422;2023-12-14T08:34:11;101816.88;;;4.19;100.00
71964;BME280;59834;52.124;5.422;2023-12-14T08:36:38;101813.34;;;4.22;100.00
71964;BME280;59834;52.124;5.422;2023-12-14T08:39:04;101820.28;;;4.21;100.00
71964;BME280;59834;52.124;5.422;2023-12-14T08:41:31;101819.34;;;4.24;100.00
71964;BME280;59834;52.124;5.422;2023-12-14T08:43:58;101824.53;;;4.24;100.00
71964;BME280;59834;52.124;5.422;2023-12-14T08:46:25;101823.72;;;4.22;100.00
71964;BME280;59834;52.124;5.422;2023-12-14T08:48:51;101826.28;;;4.23;100.00
71964;BME280;59834;52.124;5.422;2023-12-14T08:51:18;101833.16;;;4.24;100.00
71964;BME280;59834;52.124;5.422;2023-12-14T08:53:47;101842.69;;;4.24;100.00
71964;BME280;59834;52.124;5.422;2023-12-14T08:56:13;101856.47;;;4.24;100.00
71964;BME280;59834;52.124;5.422;2023-12-14T08:58:40;101855.59;;;4.25;100.00
71964;BME280;59834;52.124;5.422;2023-12-14T09:01:06;101858.16;;;4.27;100.00
71964;BME280;59834;52.124;5.422;2023-12-14T09:03:33;101860.78;;;4.25;100.00
71964;BME280;59834;52.124;5.422;2023-12-14T09:06:00;101864.19;;;4.28;100.00
71964;BME280;59834;52.124;5.422;2023-12-14T09:08:29;101866.75;;;4.29;100.00
71964;BME280;59834;52.124;5.422;2023-12-14T09:10:58;101873.66;;;4.29;100.00
71964;BME280;59834;52.124;5.422;2023-12-14T09:13:25;101871.94;;;4.29;100.00
71964;BME280;59834;52.124;5.422;2023-12-14T09:15:52;101869.34;;;4.29;100.00
71964;BME280;59834;52.124;5.422;2023-12-14T09:18:20;101877.09;;;4.31;100.00
71964;BME280;59834;52.124;5.422;2023-12-14T09:20:49;101887.41;;;4.32;100.00
71964;BME280;59834;52.124;5.422;2023-12-14T09:23:16;101886.56;;;4.32;100.00
71964;BME280;59834;52.124;5.422;2023-12-14T09:25:43;101883.97;;;4.32;100.00
71964;BME280;59834;52.124;5.422;2023-12-14T09:28:10;101900.38;;;4.34;100.00
71964;BME280;59834;52.124;5.422;2023-12-14T09:30:37;101900.38;;;4.34;100.00
71964;BME280;59834;52.124;5.422;2023-12-14T09:33:04;101898.50;;;4.39;100.00
71964;BME280;59834;52.124;5.422;2023-12-14T09:35:32;101908.03;;;4.38;100.00
71964;BME280;59834;52.124;5.422;2023-12-14T09:37:59;101910.59;;;4.40;100.00
71964;BME280;59834;52.124;5.422;2023-12-14T09:40:26;101913.16;;;4.41;100.00
71964;BME280;59834;52.124;5.422;2023-12-14T09:42:55;101910.59;;;4.40;100.00
71964;BME280;59834;52.124;5.422;2023-12-14T09:45:29;101924.38;;;4.42;100.00
71964;BME280;59834;52.124;5.422;2023-12-14T09:48:00;101923.47;;;4.44;100.00
71964;BME280;59834;52.124;5.422;2023-12-14T09:50:28;101932.94;;;4.47;100.00
71964;BME280;59834;52.124;5.422;2023-12-14T09:52:56;101927.69;;;4.50;100.00
71964;BME280;59834;52.124;5.422;2023-12-14T09:55:23;101946.63;;;4.52;100.00
71964;BME280;59834;52.124;5.422;2023-12-14T09:57:50;101950.00;;;4.56;100.00
71964;BME280;59834;52.124;5.422;2023-12-14T10:00:34;101967.00;;;4.70;100.00
71964;BME280;59834;52.124;5.422;2023-12-14T10:05:43;101963.66;;;4.65;100.00
71964;BME280;59834;52.124;5.422;2023-12-14T10:08:10;101974.88;;;4.66;100.00
71964;BME280;59834;52.124;5.422;2023-12-14T10:10:37;101986.91;;;4.70;100.00
71964;BME280;59834;52.124;5.422;2023-12-14T10:13:04;101982.56;;;4.70;100.00
71964;BME280;59834;52.124;5.422;2023-12-14T10:15:40;101983.41;;;4.71;100.00
71964;BME280;59834;52.124;5.422;2023-12-14T10:18:07;101971.19;;;4.76;100.00
71964;BME280;59834;52.124;5.422;2023-12-14T10:20:34;101971.06;;;4.82;100.00
71964;BME280;59834;52.124;5.422;2023-12-14T10:23:01;101974.56;;;4.81;100.00
71964;BME280;59834;52.124;5.422;2023-12-14T10:25:29;101979.75;;;4.81;100.00
71964;BME280;59834;52.124;5.422;2023-12-14T10:27:56;101976.91;;;4.92;100.00
71964;BME280;59834;52.124;5.422;2023-12-14T10:30:23;101969.13;;;4.93;100.00
71964;BME280;59834;52.124;5.422;2023-12-14T10:32:50;101979.44;;;4.96;100.00
71964;BME280;59834;52.124;5.422;2023-12-14T10:35:17;101975.09;;;4.97;100.00
71964;BME280;59834;52.124;5.422;2023-12-14T10:37:49;101985.47;;;4.97;100.00
71964;BME280;59834;52.124;5.422;2023-12-14T10:40:16;101979.34;;;5.00;100.00
71964;BME280;59834;52.124;5.422;2023-12-14T10:42:44;101987.88;;;5.05;100.00
71964;BME280;59834;52.124;5.422;2023-12-14T10:45:12;101981.72;;;5.10;100.00
71964;BME280;59834;52.124;5.422;2023-12-14T10:47:47;101979.06;;;5.12;100.00
71964;BME280;59834;52.124;5.422;2023-12-14T10:50:17;101986.84;;;5.12;100.00
71964;BME280;59834;52.124;5.422;2023-12-14T10:52:45;101976.47;;;5.12;100.00
71964;BME280;59834;52.124;5.422;2023-12-14T10:55:23;101987.69;;;5.14;100.00
71964;BME280;59834;52.124;5.422;2023-12-14T10:57:52;101986.91;;;5.10;100.00
71964;BME280;59834;52.124;5.422;2023-12-14T11:00:19;101986.06;;;5.10;100.00
71964;BME280;59834;52.124;5.422;2023-12-14T11:02:46;101989.38;;;5.15;100.00
71964;BME280;59834;52.124;5.422;2023-12-14T11:05:14;101991.88;;;5.19;100.00
71964;BME280;59834;52.124;5.422;2023-12-14T11:07:54;101991.06;;;5.17;100.00
71964;BME280;59834;52.124;5.422;2023-12-14T11:10:26;102001.34;;;5.22;100.00
71964;BME280;59834;52.124;5.422;2023-12-14T11:13:00;102010.88;;;5.22;100.00
71964;BME280;59834;52.124;5.422;2023-12-14T11:15:29;102011.00;;;5.15;100.00
71964;BME280;59834;52.124;5.422;2023-12-14T11:23:13;102030.72;;;5.24;99.42
71964;BME280;59834;52.124;5.422;2023-12-14T11:25:40;102028.13;;;5.24;98.60
71964;BME280;59834;52.124;5.422;2023-12-14T11:28:12;102029.88;;;5.22;98.33
71964;BME280;59834;52.124;5.422;2023-12-14T11:30:40;102022.03;;;5.25;99.91
71964;BME280;59834;52.124;5.422;2023-12-14T11:33:21;102026.31;;;5.28;100.00
71964;BME280;59834;52.124;5.422;2023-12-14T11:35:50;102023.66;;;5.29;100.00
71964;BME280;59834;52.124;5.422;2023-12-14T11:38:17;102029.69;;;5.31;100.00
71964;BME280;59834;52.124;5.422;2023-12-14T11:40:45;102044.41;;;5.31;99.94
71964;BME280;59834;52.124;5.422;2023-12-14T11:43:12;102030.59;;;5.30;99.42
71964;BME280;59834;52.124;5.422;2023-12-14T11:45:40;102031.38;;;5.32;98.28
71964;BME280;59834;52.124;5.422;2023-12-14T11:48:08;102025.28;;;5.35;98.50
71964;BME280;59834;52.124;5.422;2023-12-14T11:50:41;102026.91;;;5.39;98.70
71964;BME280;59834;52.124;5.422;2023-12-14T11:53:10;102036.25;;;5.46;98.30
71964;BME280;59834;52.124;5.422;2023-12-14T11:55:39;102029.25;;;5.50;97.80
71964;BME280;59834;52.124;5.422;2023-12-14T11:58:07;102033.44;;;5.57;97.07
71964;BME280;59834;52.124;5.422;2023-12-14T12:00:35;102037.69;;;5.59;97.87
71964;BME280;59834;52.124;5.422;2023-12-14T12:03:11;102031.50;;;5.65;98.17
71964;BME280;59834;52.124;5.422;2023-12-14T12:05:46;102034.75;;;5.73;98.68
71964;BME280;59834;52.124;5.422;2023-12-14T12:08:14;102031.44;;;5.66;98.20
71964;BME280;59834;52.124;5.422;2023-12-14T12:10:42;102047.28;;;5.57;98.84
71964;BME280;59834;52.124;5.422;2023-12-14T12:13:15;102050.81;;;5.53;99.07
71964;BME280;59834;52.124;5.422;2023-12-14T12:15:42;102049.81;;;5.60;99.23
71964;BME280;59834;52.124;5.422;2023-12-14T12:18:16;102042.88;;;5.59;98.81
71964;BME280;59834;52.124;5.422;2023-12-14T12:20:43;102048.22;;;5.53;98.27
71964;BME280;59834;52.124;5.422;2023-12-14T12:23:10;102050.03;;;5.50;99.05
71964;BME280;59834;52.124;5.422;2023-12-14T12:25:37;102056.91;;;5.52;99.67
71964;BME280;59834;52.124;5.422;2023-12-14T12:28:04;102047.34;;;5.54;99.72
71964;BME280;59834;52.124;5.422;2023-12-14T12:30:31;102055.00;;;5.60;100.00
71964;BME280;59834;52.124;5.422;2023-12-14T12:32:58;102054.16;;;5.58;99.87
71964;BME280;59834;52.124;5.422;2023-12-14T12:35:25;102060.13;;;5.63;100.00
71964;BME280;59834;52.124;5.422;2023-12-14T12:37:52;102063.59;;;5.62;100.00
71964;BME280;59834;52.124;5.422;2023-12-14T12:40:23;102060.97;;;5.64;100.00
71964;BME280;59834;52.124;5.422;2023-12-14T12:42:52;102058.41;;;5.62;100.00
71964;BME280;59834;52.124;5.422;2023-12-14T12:45:19;102061.13;;;5.58;100.00
71964;BME280;59834;52.124;5.422;2023-12-14T12:47:49;102073.25;;;5.57;100.00
71964;BME280;59834;52.124;5.422;2023-12-14T12:50:16;102079.25;;;5.59;100.00
71964;BME280;59834;52.124;5.422;2023-12-14T12:52:43;102075.00;;;5.55;100.00
71964;BME280;59834;52.124;5.422;2023-12-14T12:55:11;102069.81;;;5.57;100.00
71964;BME280;59834;52.124;5.422;2023-12-14T12:57:37;102074.13;;;5.56;99.98
71964;BME280;59834;52.124;5.422;2023-12-14T13:00:04;102079.28;;;5.58;100.00